createdAt,value
2018-12-06T00:02:15.663Z,4.90
2018-12-06T00:04:49.344Z,5.57
2018-12-06T00:07:22.827Z,5.13
2018-12-06T00:09:57.196Z,5.63
2018-12-06T00:12:29.693Z,6.40
2018-12-06T00:15:14.437Z,5.53
2018-12-06T00:17:47.450Z,5.57
2018-12-06T00:20:19.946Z,5.93
2018-12-06T00:22:52.595Z,5.87
2018-12-06T00:25:27.231Z,5.93
2018-12-06T00:28:00.766Z,5.43
2018-12-06T00:30:38.946Z,5.53
2018-12-06T00:33:12.125Z,5.73
2018-12-06T00:35:45.713Z,5.60
2018-12-06T00:38:19.677Z,5.70
2018-12-06T00:40:52.863Z,6.60
2018-12-06T00:43:25.595Z,5.67
2018-12-06T00:45:58.924Z,6.03
2018-12-06T00:48:31.805Z,5.40
2018-12-06T00:51:04.830Z,5.90
2018-12-06T00:53:37.901Z,5.47
2018-12-06T00:56:10.529Z,5.60
2018-12-06T00:58:44.108Z,5.77
2018-12-06T01:01:17.067Z,6.23
2018-12-06T01:03:50.032Z,6.63
2018-12-06T01:06:24.243Z,6.17
2018-12-06T01:08:57.584Z,6.87
2018-12-06T01:11:30.133Z,6.00
2018-12-06T01:14:04.232Z,6.27
2018-12-06T01:16:37.203Z,6.27
2018-12-06T01:19:11.786Z,5.93
2018-12-06T01:21:46.288Z,6.13
2018-12-06T01:24:19.207Z,6.07
2018-12-06T01:26:52.823Z,6.30
2018-12-06T01:29:25.812Z,5.67
2018-12-06T01:32:00.534Z,5.07
2018-12-06T01:34:34.162Z,5.43
2018-12-06T01:37:08.742Z,6.03
2018-12-06T01:39:43.401Z,5.67
2018-12-06T01:42:16.890Z,6.57
2018-12-06T01:44:50.393Z,5.60
2018-12-06T01:47:24.907Z,5.43
2018-12-06T01:49:57.555Z,6.20
2018-12-06T01:52:31.053Z,6.67
2018-12-06T01:55:04.332Z,5.57
2018-12-06T01:57:38.326Z,6.13
2018-12-06T02:00:12.296Z,5.77
2018-12-06T02:02:45.768Z,5.77
2018-12-06T02:05:20.482Z,5.87
2018-12-06T02:07:54.703Z,5.87
2018-12-06T02:10:28.040Z,6.00
2018-12-06T02:13:00.649Z,6.00
2018-12-06T02:15:33.335Z,6.30
2018-12-06T02:18:06.797Z,5.10
2018-12-06T02:20:40.269Z,5.90
2018-12-06T02:23:14.280Z,5.80
2018-12-06T02:25:47.348Z,6.63
2018-12-06T02:28:20.079Z,5.80
2018-12-06T02:30:54.846Z,6.00
2018-12-06T02:33:27.909Z,5.80
2018-12-06T02:36:01.124Z,5.90
2018-12-06T02:38:33.858Z,6.00
2018-12-06T02:41:06.559Z,6.10
2018-12-06T02:43:41.301Z,5.43
2018-12-06T02:46:14.804Z,5.40
2018-12-06T02:48:47.966Z,5.73
2018-12-06T02:51:21.178Z,5.37
2018-12-06T02:53:55.315Z,5.10
2018-12-06T02:56:28.677Z,5.00
2018-12-06T02:59:01.700Z,5.27
2018-12-06T03:01:35.067Z,5.30
2018-12-06T03:04:08.312Z,5.33
2018-12-06T03:06:41.845Z,6.87
2018-12-06T03:09:16.436Z,5.50
2018-12-06T03:11:49.565Z,5.03
2018-12-06T03:14:22.299Z,4.97
2018-12-06T03:16:55.932Z,5.83
2018-12-06T03:19:29.652Z,5.27
2018-12-06T03:22:02.632Z,4.87
2018-12-06T03:24:36.569Z,5.17
2018-12-06T03:27:09.361Z,5.40
2018-12-06T03:29:42.732Z,5.43
2018-12-06T03:32:16.086Z,6.17
2018-12-06T03:34:49.116Z,5.67
2018-12-06T03:37:21.592Z,5.40
2018-12-06T03:39:55.610Z,5.73
2018-12-06T03:42:28.481Z,5.13
2018-12-06T03:45:02.096Z,5.30
2018-12-06T03:47:35.028Z,5.40
2018-12-06T03:50:08.280Z,5.23
2018-12-06T03:52:40.939Z,5.13
2018-12-06T03:55:13.998Z,5.07
2018-12-06T03:57:47.483Z,5.50
2018-12-06T04:00:20.570Z,5.10
2018-12-06T04:02:53.692Z,5.00
2018-12-06T04:05:26.780Z,5.20
2018-12-06T04:07:59.506Z,5.37
2018-12-06T04:10:32.841Z,4.90
2018-12-06T04:13:07.465Z,5.33
2018-12-06T04:15:40.530Z,4.97
2018-12-06T04:18:13.000Z,5.67
2018-12-06T04:20:45.719Z,5.27
2018-12-06T04:23:18.598Z,5.97
2018-12-06T04:25:51.567Z,5.60
2018-12-06T04:28:24.341Z,5.30
2018-12-06T04:30:58.342Z,4.60
2018-12-06T04:33:32.636Z,5.03
2018-12-06T04:36:05.610Z,4.67
2018-12-06T04:38:38.669Z,4.73
2018-12-06T04:41:11.899Z,4.80
2018-12-06T04:43:45.046Z,4.73
2018-12-06T04:46:18.236Z,4.97
2018-12-06T04:48:51.434Z,5.23
2018-12-06T04:51:24.796Z,5.13
2018-12-06T04:53:57.446Z,5.50
2018-12-06T04:56:32.196Z,5.40
2018-12-06T04:59:05.518Z,5.63
2018-12-06T05:01:38.682Z,4.90
2018-12-06T05:04:13.542Z,5.17
2018-12-06T05:06:46.779Z,4.93
2018-12-06T05:09:19.476Z,4.77
2018-12-06T05:11:52.795Z,5.03
2018-12-06T05:14:25.807Z,5.13
2018-12-06T05:16:58.328Z,4.90
2018-12-06T05:19:31.459Z,5.20
2018-12-06T05:22:04.039Z,4.97
2018-12-06T05:24:36.789Z,5.57
2018-12-06T05:27:09.814Z,4.80
2018-12-06T05:29:44.636Z,4.67
2018-12-06T05:32:17.586Z,4.90
2018-12-06T05:34:50.166Z,5.00
2018-12-06T05:37:23.408Z,4.77
2018-12-06T05:39:56.339Z,5.50
2018-12-06T05:42:28.940Z,4.40
2018-12-06T05:45:02.105Z,5.20
2018-12-06T05:47:36.390Z,4.80
2018-12-06T05:50:09.807Z,5.20
2018-12-06T05:52:42.700Z,5.00
2018-12-06T05:55:16.477Z,5.23
2018-12-06T05:57:49.061Z,5.20
2018-12-06T06:00:21.711Z,4.53
2018-12-06T06:02:56.433Z,4.43
2018-12-06T06:05:31.114Z,4.33
2018-12-06T06:08:05.673Z,4.53
2018-12-06T06:10:38.362Z,4.63
2018-12-06T06:13:11.859Z,4.70
2018-12-06T06:15:44.578Z,4.90
2018-12-06T06:18:18.102Z,4.43
2018-12-06T06:20:51.206Z,4.90
2018-12-06T06:23:24.263Z,4.90
2018-12-06T06:25:57.463Z,4.77
2018-12-06T06:28:31.371Z,4.47
2018-12-06T06:31:04.497Z,4.53
2018-12-06T06:33:37.936Z,4.93
2018-12-06T06:36:10.980Z,4.67
2018-12-06T06:38:43.972Z,4.80
2018-12-06T06:41:17.079Z,4.23
2018-12-06T06:43:49.629Z,4.37
2018-12-06T06:46:22.184Z,4.40
2018-12-06T06:48:54.791Z,4.80
2018-12-06T06:51:27.921Z,4.87
2018-12-06T06:54:00.527Z,4.73
2018-12-06T06:56:35.046Z,4.57
2018-12-06T06:59:07.941Z,4.50
2018-12-06T07:01:40.900Z,4.60
2018-12-06T07:04:13.660Z,4.53
2018-12-06T07:06:46.549Z,4.80
2018-12-06T07:09:20.649Z,5.57
2018-12-06T07:11:53.534Z,5.00
2018-12-06T07:14:26.727Z,5.07
2018-12-06T07:16:59.772Z,4.73
2018-12-06T07:19:32.740Z,5.00
2018-12-06T07:22:05.743Z,5.40
2018-12-06T07:24:38.477Z,5.10
2018-12-06T07:27:11.011Z,4.60
2018-12-06T07:29:44.752Z,4.63
2018-12-06T07:32:17.770Z,5.23
2018-12-06T07:34:52.302Z,5.60
2018-12-06T07:37:25.635Z,5.97
2018-12-06T07:39:59.479Z,6.23
2018-12-06T07:42:32.136Z,5.07
2018-12-06T07:45:06.240Z,5.03
2018-12-06T07:47:39.116Z,4.50
2018-12-06T07:50:11.556Z,4.90
2018-12-06T07:52:45.693Z,5.43
2018-12-06T07:55:18.375Z,4.73
2018-12-06T07:57:51.476Z,4.83
2018-12-06T08:00:24.276Z,5.00
2018-12-06T08:02:56.970Z,4.93
2018-12-06T08:05:30.766Z,5.70
2018-12-06T08:08:03.912Z,5.37
2018-12-06T08:10:37.503Z,5.43
2018-12-06T08:13:10.164Z,5.33
2018-12-06T08:15:43.571Z,4.40
2018-12-06T08:18:17.147Z,5.17
2018-12-06T08:20:50.022Z,4.60
2018-12-06T08:23:22.764Z,4.80
2018-12-06T08:25:55.728Z,4.53
2018-12-06T08:28:29.768Z,5.43
2018-12-06T08:31:02.565Z,5.33
2018-12-06T08:33:35.230Z,5.17
2018-12-06T08:36:07.920Z,4.60
2018-12-06T08:38:41.125Z,4.70
2018-12-06T08:41:13.702Z,4.80
2018-12-06T08:43:46.411Z,4.60
2018-12-06T08:46:19.704Z,5.23
2018-12-06T08:48:52.306Z,5.00
2018-12-06T08:51:25.049Z,5.17
2018-12-06T08:53:57.649Z,4.97
2018-12-06T08:56:30.902Z,4.70
2018-12-06T08:59:03.794Z,4.87
2018-12-06T09:01:36.747Z,4.73
2018-12-06T09:04:09.636Z,4.70
2018-12-06T09:06:44.228Z,5.20
2018-12-06T09:09:17.523Z,4.97
2018-12-06T09:11:50.197Z,4.47
2018-12-06T09:14:23.238Z,4.60
2018-12-06T09:16:56.923Z,5.13
2018-12-06T09:19:29.953Z,4.43
2018-12-06T09:22:03.258Z,5.63
2018-12-06T09:24:36.088Z,4.60
2018-12-06T09:27:09.181Z,4.90
2018-12-06T09:29:42.847Z,5.03
2018-12-06T09:32:16.891Z,5.27
2018-12-06T09:34:50.955Z,5.43
2018-12-06T09:37:23.925Z,6.20
2018-12-06T09:40:00.517Z,5.43
2018-12-06T09:42:34.700Z,6.47
2018-12-06T09:45:08.640Z,5.57
2018-12-06T09:47:41.544Z,4.93
2018-12-06T09:50:14.157Z,4.63
2018-12-06T09:52:46.778Z,4.47
2018-12-06T09:55:20.057Z,4.50
2018-12-06T09:57:52.994Z,5.30
2018-12-06T10:00:26.031Z,4.60
2018-12-06T10:03:00.384Z,4.83
2018-12-06T10:05:32.943Z,4.93
2018-12-06T10:08:06.459Z,4.50
2018-12-06T10:10:39.693Z,5.10
2018-12-06T10:13:12.315Z,4.83
2018-12-06T10:15:45.948Z,5.60
2018-12-06T10:18:18.673Z,9.13
2018-12-06T10:20:51.599Z,6.13
2018-12-06T10:23:24.196Z,5.90
2018-12-06T10:25:57.307Z,10.13
2018-12-06T10:28:30.699Z,8.53
2018-12-06T10:31:03.627Z,8.33
2018-12-06T10:33:36.434Z,5.40
2018-12-06T10:36:12.178Z,4.70
2018-12-06T10:38:45.562Z,4.87
2018-12-06T10:41:18.376Z,4.87
2018-12-06T10:43:51.229Z,4.83
2018-12-06T10:46:25.593Z,4.90
2018-12-06T10:48:58.524Z,4.63
2018-12-06T10:51:41.540Z,4.83
2018-12-06T10:54:15.004Z,5.17
2018-12-06T10:56:48.368Z,5.60
2018-12-06T10:59:22.576Z,5.13
2018-12-06T11:02:01.593Z,5.07
2018-12-06T11:04:35.122Z,5.17
2018-12-06T11:07:08.294Z,5.87
2018-12-06T11:09:41.427Z,5.53
2018-12-06T11:12:14.974Z,6.87
2018-12-06T11:14:48.341Z,4.53
2018-12-06T11:17:21.388Z,5.07
2018-12-06T11:19:54.720Z,5.13
2018-12-06T11:22:27.888Z,6.03
2018-12-06T11:25:00.999Z,8.03
2018-12-06T11:27:33.676Z,6.30
2018-12-06T11:30:07.070Z,9.90
2018-12-06T11:32:40.046Z,9.83
2018-12-06T11:38:24.382Z,7.00
2018-12-06T11:40:57.955Z,7.70
2018-12-06T11:43:32.564Z,13.30
2018-12-06T11:46:05.919Z,13.17
2018-12-06T11:48:38.845Z,8.40
2018-12-06T11:51:12.662Z,5.80
2018-12-06T11:53:46.689Z,5.87
2018-12-06T11:56:21.348Z,8.77
2018-12-06T11:58:55.521Z,6.50
2018-12-06T12:01:28.186Z,6.30
2018-12-06T12:04:00.938Z,7.03
2018-12-06T12:06:34.102Z,6.33
2018-12-06T12:09:08.400Z,8.00
2018-12-06T12:11:41.411Z,6.70
2018-12-06T12:14:14.234Z,7.37
2018-12-06T12:16:46.838Z,6.60
2018-12-06T12:19:20.348Z,6.00
2018-12-06T12:21:53.465Z,6.57
2018-12-06T12:24:26.556Z,6.03
2018-12-06T12:26:59.638Z,5.33
2018-12-06T12:29:32.770Z,5.53
2018-12-06T12:32:06.176Z,5.57
2018-12-06T12:34:39.436Z,6.13
2018-12-06T12:37:12.481Z,6.50
2018-12-06T12:39:45.373Z,6.37
2018-12-06T12:42:18.537Z,6.70
2018-12-06T12:44:52.157Z,6.63
2018-12-06T12:47:26.597Z,6.23
2018-12-06T12:49:59.280Z,6.77
2018-12-06T12:52:32.839Z,5.60
2018-12-06T12:55:07.800Z,5.87
2018-12-06T12:57:40.958Z,5.93
2018-12-06T13:00:15.270Z,6.23
2018-12-06T13:02:48.352Z,5.70
2018-12-06T13:05:22.520Z,6.70
2018-12-06T13:07:57.018Z,6.03
2018-12-06T13:10:30.897Z,6.10
2018-12-06T13:13:05.519Z,5.50
2018-12-06T13:15:38.121Z,5.93
2018-12-06T13:18:11.096Z,5.50
2018-12-06T13:20:45.129Z,6.30
2018-12-06T13:23:18.897Z,6.30
2018-12-06T13:25:51.946Z,7.77
2018-12-06T13:28:26.628Z,6.20
2018-12-06T13:31:01.348Z,24.07
2018-12-06T13:33:37.226Z,11.00
2018-12-06T13:36:10.285Z,7.77
2018-12-06T13:38:44.134Z,7.57
2018-12-06T13:41:17.738Z,7.07
2018-12-06T13:43:51.029Z,7.50
2018-12-06T13:46:24.926Z,7.00
2018-12-06T13:48:59.081Z,6.87
2018-12-06T13:51:32.422Z,6.93
2018-12-06T13:54:07.211Z,6.97
2018-12-06T13:56:40.074Z,6.53
2018-12-06T13:59:14.873Z,6.87
2018-12-06T14:01:48.088Z,16.10
2018-12-06T14:04:21.126Z,14.60
2018-12-06T14:06:54.478Z,7.90
2018-12-06T14:09:27.900Z,7.33
2018-12-06T14:12:00.919Z,6.63
2018-12-06T14:14:35.129Z,6.60
2018-12-06T14:17:09.327Z,8.93
2018-12-06T14:19:42.387Z,7.43
2018-12-06T14:22:15.621Z,7.87
2018-12-06T14:24:48.424Z,7.43
2018-12-06T14:27:21.431Z,8.40
2018-12-06T14:29:54.040Z,7.20
2018-12-06T14:32:27.756Z,8.33
2018-12-06T14:35:01.145Z,8.77
2018-12-06T14:37:33.700Z,8.73
2018-12-06T14:40:06.496Z,7.80
2018-12-06T14:42:41.070Z,14.73
2018-12-06T14:45:13.808Z,10.80
2018-12-06T14:47:48.379Z,15.60
2018-12-06T14:50:21.717Z,8.90
2018-12-06T14:52:55.627Z,16.27
2018-12-06T14:55:28.795Z,27.97
2018-12-06T14:58:01.616Z,10.63
2018-12-06T15:00:34.958Z,10.70
2018-12-06T15:03:08.370Z,12.10
2018-12-06T15:05:41.226Z,9.50
2018-12-06T15:08:15.077Z,9.90
2018-12-06T15:10:47.760Z,8.87
2018-12-06T15:13:21.392Z,9.13
2018-12-06T15:15:54.115Z,8.10
2018-12-06T15:18:27.027Z,8.13
2018-12-06T15:21:00.381Z,12.27
2018-12-06T15:23:33.047Z,8.73
2018-12-06T15:26:06.171Z,7.97
2018-12-06T15:28:39.800Z,14.07
2018-12-06T15:31:14.374Z,13.63
2018-12-06T15:33:47.778Z,17.13
2018-12-06T15:36:20.959Z,26.77
2018-12-06T15:38:54.097Z,15.10
2018-12-06T15:41:27.972Z,11.33
2018-12-06T15:44:01.857Z,12.10
2018-12-06T15:46:34.452Z,10.47
2018-12-06T15:49:08.577Z,12.13
2018-12-06T15:51:42.671Z,12.33
2018-12-06T15:54:16.781Z,12.70
2018-12-06T15:56:50.492Z,12.00
2018-12-06T15:59:23.642Z,10.80
2018-12-06T16:01:57.076Z,11.47
2018-12-06T16:04:30.421Z,13.67
2018-12-06T16:07:05.406Z,14.57
2018-12-06T16:09:39.522Z,14.27
2018-12-06T16:12:13.004Z,15.30
2018-12-06T16:14:46.180Z,16.60
2018-12-06T16:17:20.742Z,19.50
2018-12-06T16:19:53.908Z,20.57
2018-12-06T16:22:28.161Z,22.30
2018-12-06T16:25:02.008Z,21.30
2018-12-06T16:27:36.965Z,29.33
2018-12-06T16:30:10.091Z,24.27
2018-12-06T16:32:43.458Z,23.20
2018-12-06T16:35:17.115Z,20.20
2018-12-06T16:37:51.239Z,13.17
2018-12-06T16:40:24.778Z,12.77
2018-12-06T16:42:58.172Z,11.40
2018-12-06T16:45:31.144Z,15.90
2018-12-06T16:48:03.861Z,15.00
2018-12-06T16:50:37.125Z,16.10
2018-12-06T16:53:10.714Z,14.00
2018-12-06T16:55:44.145Z,12.70
2018-12-06T16:58:17.561Z,13.63
2018-12-06T17:00:52.103Z,14.00
2018-12-06T17:03:25.551Z,17.13
2018-12-06T17:05:58.375Z,17.30
2018-12-06T17:08:31.564Z,18.33
2018-12-06T17:11:05.058Z,19.83
2018-12-06T17:13:37.934Z,16.30
2018-12-06T17:16:10.951Z,14.63
2018-12-06T17:18:44.366Z,14.33
2018-12-06T17:21:17.569Z,12.40
2018-12-06T17:23:50.371Z,11.93
2018-12-06T17:26:23.220Z,15.43
2018-12-06T17:28:56.781Z,17.67
2018-12-06T17:31:30.258Z,27.77
2018-12-06T17:34:03.063Z,27.47
2018-12-06T17:36:37.715Z,19.30
2018-12-06T17:39:11.216Z,15.93
2018-12-06T17:41:44.791Z,14.20
2018-12-06T17:44:17.360Z,13.27
2018-12-06T17:46:51.120Z,13.93
2018-12-06T17:49:25.697Z,13.20
2018-12-06T17:51:59.264Z,15.07
2018-12-06T17:54:32.482Z,16.43
2018-12-06T17:57:13.778Z,22.30
2018-12-06T17:59:47.354Z,17.90
2018-12-06T18:02:20.822Z,18.77
2018-12-06T18:04:53.917Z,20.93
2018-12-06T18:07:27.568Z,16.17
2018-12-06T18:10:00.614Z,15.60
2018-12-06T18:12:33.544Z,12.30
2018-12-06T18:15:08.884Z,14.07
2018-12-06T18:17:43.412Z,13.10
2018-12-06T18:20:16.724Z,13.27
2018-12-06T18:22:50.310Z,13.80
2018-12-06T18:25:23.771Z,13.80
2018-12-06T18:27:56.767Z,14.50
2018-12-06T18:30:31.614Z,15.40
2018-12-06T18:33:04.782Z,14.37
2018-12-06T18:35:39.447Z,15.43
2018-12-06T18:38:14.379Z,16.37
2018-12-06T18:40:47.655Z,14.40
2018-12-06T18:43:22.409Z,14.30
2018-12-06T18:45:55.652Z,14.83
2018-12-06T18:48:28.665Z,12.93
2018-12-06T18:51:01.422Z,14.27
2018-12-06T18:53:34.763Z,14.57
2018-12-06T18:56:07.527Z,14.73
2018-12-06T18:58:40.315Z,17.30
2018-12-06T19:01:13.001Z,16.33
2018-12-06T19:03:47.748Z,15.90
2018-12-06T19:06:20.711Z,23.53
2018-12-06T19:08:53.885Z,16.90
2018-12-06T19:11:27.139Z,15.07
2018-12-06T19:14:00.171Z,18.10
2018-12-06T19:16:33.464Z,16.10
2018-12-06T19:19:06.931Z,14.10
2018-12-06T19:21:40.404Z,14.53
2018-12-06T19:24:14.927Z,13.57
2018-12-06T19:26:47.962Z,14.23
2018-12-06T19:29:20.947Z,12.97
2018-12-06T19:31:54.037Z,13.00
2018-12-06T19:34:27.175Z,17.77
2018-12-06T19:37:01.090Z,16.83
2018-12-06T19:39:34.155Z,16.50
2018-12-06T19:42:07.493Z,15.73
2018-12-06T19:44:40.557Z,15.80
2018-12-06T19:47:13.768Z,16.43
2018-12-06T19:49:46.833Z,17.17
2018-12-06T19:52:20.291Z,17.37
2018-12-06T19:54:53.227Z,20.10
2018-12-06T19:57:26.017Z,18.50
2018-12-06T19:59:59.978Z,25.53
2018-12-06T20:02:33.095Z,18.50
2018-12-06T20:05:06.904Z,15.47
2018-12-06T20:07:40.817Z,14.80
2018-12-06T20:10:14.410Z,14.37
2018-12-06T20:12:47.007Z,13.00
2018-12-06T20:15:19.745Z,13.80
2018-12-06T20:17:52.341Z,12.40
2018-12-06T20:20:25.556Z,16.33
2018-12-06T20:22:58.192Z,16.10
2018-12-06T20:25:31.060Z,14.87
2018-12-06T20:28:05.555Z,16.83
2018-12-06T20:30:39.203Z,14.93
2018-12-06T20:33:12.765Z,15.30
2018-12-06T20:35:45.593Z,22.10
2018-12-06T20:38:18.450Z,20.90
2018-12-06T20:40:51.429Z,16.03
2018-12-06T20:43:24.324Z,15.90
2018-12-06T20:45:57.656Z,15.83
2018-12-06T20:48:31.083Z,17.83
2018-12-06T20:51:04.483Z,19.87
2018-12-06T20:53:37.325Z,21.23
2018-12-06T20:56:10.081Z,19.90
2018-12-06T20:58:43.111Z,21.17
2018-12-06T21:01:16.089Z,21.33
2018-12-06T21:03:51.091Z,22.37
2018-12-06T21:06:24.037Z,22.07
2018-12-06T21:08:58.031Z,24.20
2018-12-06T21:11:30.953Z,23.77
2018-12-06T21:14:04.688Z,21.70
2018-12-06T21:16:37.799Z,20.73
2018-12-06T21:19:11.131Z,17.57
2018-12-06T21:21:44.627Z,17.70
2018-12-06T21:24:18.467Z,19.27
2018-12-06T21:26:51.628Z,17.83
2018-12-06T21:29:24.310Z,18.80
2018-12-06T21:31:57.720Z,18.00
2018-12-06T21:34:31.143Z,17.77
2018-12-06T21:37:04.565Z,19.17
2018-12-06T21:39:37.645Z,17.67
2018-12-06T21:42:10.603Z,17.80
2018-12-06T21:44:43.516Z,19.43
2018-12-06T21:47:21.948Z,17.67
2018-12-06T21:49:55.308Z,17.00
2018-12-06T21:52:29.201Z,16.37
2018-12-06T21:55:02.819Z,17.83
2018-12-06T21:57:36.251Z,16.50
2018-12-06T22:00:10.445Z,17.80
2018-12-06T22:02:43.535Z,18.20
2018-12-06T22:05:16.224Z,18.67
2018-12-06T22:07:49.794Z,17.97
2018-12-06T22:10:22.802Z,18.07
2018-12-06T22:12:55.747Z,17.93
2018-12-06T22:15:28.867Z,16.67
2018-12-06T22:18:03.310Z,18.70
2018-12-06T22:20:36.379Z,18.17
2018-12-06T22:23:09.823Z,18.17
2018-12-06T22:25:42.443Z,16.93
2018-12-06T22:28:15.266Z,18.37
2018-12-06T22:30:48.904Z,17.20
2018-12-06T22:33:21.907Z,16.43
2018-12-06T22:35:55.050Z,17.13
2018-12-06T22:38:34.058Z,17.43
2018-12-06T22:41:04.231Z,17.47
2018-12-06T22:43:36.847Z,16.33
2018-12-06T22:46:09.781Z,16.90
2018-12-06T22:48:49.188Z,16.03
2018-12-06T22:51:24.430Z,16.07
2018-12-06T22:53:57.448Z,15.67
2018-12-06T22:56:30.784Z,15.20
2018-12-06T22:59:05.370Z,15.17
2018-12-06T23:01:40.726Z,16.20
2018-12-06T23:04:14.347Z,16.03
2018-12-06T23:06:49.009Z,16.03
2018-12-06T23:09:22.216Z,13.57
2018-12-06T23:11:55.833Z,13.17
2018-12-06T23:14:29.357Z,15.57
2018-12-06T23:17:02.334Z,13.93
2018-12-06T23:19:36.712Z,14.00
2018-12-06T23:22:11.139Z,12.83
2018-12-06T23:24:44.171Z,14.70
2018-12-06T23:27:16.761Z,14.60
2018-12-06T23:29:49.609Z,13.73
2018-12-06T23:32:24.188Z,13.63
2018-12-06T23:34:57.058Z,13.83
2018-12-06T23:37:29.648Z,12.80
2018-12-06T23:40:03.216Z,13.53
2018-12-06T23:42:36.617Z,11.73
2018-12-06T23:45:09.330Z,12.93
2018-12-06T23:47:43.940Z,14.40
2018-12-06T23:50:16.884Z,14.47
2018-12-06T23:52:50.860Z,13.50
2018-12-06T23:55:23.515Z,11.73
2018-12-06T23:57:56.244Z,12.13
